Time;durP1;ratioP1;P1;durP2;ratioP2;P2;SDS_P1;SDS_P2;PMS_P1;PMS_P2;Temp;Humidity;BMP_temperature;BMP_pressure;BME280_temperature;BME280_humidity;BME280_pressure;Samples;Min_cycle;Max_cycle;Signal;HPM_P1;HPM_P2
2021/04/16 00:00:27;;;;;;;25.52;23.13;;;;;;;;;;5096657;28;20206;-73
2021/04/16 00:02:54;;;;;;;23.75;22.13;;;;;;;;;;5096344;28;20189;-74
2021/04/16 00:05:21;;;;;;;23.80;22.25;;;;;;;;;;5096213;27;20212;-74
2021/04/16 00:07:48;;;;;;;24.77;23.27;;;;;;;;;;5096224;28;20693;-74
2021/04/16 00:10:17;;;;;;;23.92;22.38;;;;;;;;;;5096198;28;20189;-73
2021/04/16 00:12:44;;;;;;;23.70;22.20;;;;;;;;;;5095597;28;20221;-73
2021/04/16 00:15:12;;;;;;;24.13;22.63;;;;;;;;;;5096007;28;20185;-74
2021/04/16 00:17:40;;;;;;;23.58;22.17;;;;;;;;;;5095945;28;20192;-73
2021/04/16 00:20:08;;;;;;;24.25;22.75;;;;;;;;;;5095995;28;20223;-73
2021/04/16 00:22:35;;;;;;;25.80;24.20;;;;;;;;;;5095632;28;20206;-74
2021/04/16 00:25:02;;;;;;;24.25;22.75;;;;;;;;;;5095555;28;20198;-73
2021/04/16 00:27:29;;;;;;;23.40;21.92;;;;;;;;;;5095466;28;20630;-73
2021/04/16 00:29:57;;;;;;;24.50;23.00;;;;;;;;;;5095934;28;20572;-74
2021/04/16 00:32:23;;;;;;;23.75;22.25;;;;;;;;;;5095775;28;20250;-74
2021/04/16 00:34:50;;;;;;;25.38;23.58;;;;;;;;;;5094423;28;20222;-73
2021/04/16 00:37:17;;;;;;;24.20;22.60;;;;;;;;;;5095499;28;20649;-74
2021/04/16 00:39:44;;;;;;;24.92;23.42;;;;;;;;;;5095644;28;20185;-73
2021/04/16 00:42:11;;;;;;;25.15;23.38;;;;;;;;;;5095563;28;20198;-74
2021/04/16 00:44:38;;;;;;;24.27;22.77;;;;;;;;;;5095600;28;20193;-73
2021/04/16 00:47:11;;;;;;;25.08;23.08;;;;;;;;;;5095247;28;20638;-73
2021/04/16 00:49:40;;;;;;;24.20;22.60;;;;;;;;;;5095167;28;20215;-74
2021/04/16 00:52:08;;;;;;;24.95;23.33;;;;;;;;;;5095469;28;20579;-73
2021/04/16 00:54:36;;;;;;;24.45;22.95;;;;;;;;;;5093771;28;20205;-72
2021/04/16 00:57:03;;;;;;;25.33;23.70;;;;;;;;;;5094622;28;20211;-73
2021/04/16 00:59:32;;;;;;;24.42;22.83;;;;;;;;;;5095388;28;20191;-73
2021/04/16 01:02:00;;;;;;;24.85;23.27;;;;;;;;;;5094616;28;20196;-74
2021/04/16 01:04:34;;;;;;;24.30;22.80;;;;;;;;;;5095968;28;20661;-72
2021/04/16 01:07:01;;;;;;;25.25;23.65;;;;;;;;;;5095471;28;20199;-73
2021/04/16 01:09:29;;;;;;;24.60;22.90;;;;;;;;;;5094701;28;20221;-73
2021/04/16 01:11:56;;;;;;;24.52;22.92;;;;;;;;;;5095041;28;20278;-73
2021/04/16 01:14:24;;;;;;;24.25;22.70;;;;;;;;;;5095128;28;20245;-73
2021/04/16 01:16:51;;;;;;;23.33;21.92;;;;;;;;;;5093401;28;20208;-74
2021/04/16 01:19:22;;;;;;;23.75;22.17;;;;;;;;;;5094940;28;20226;-73
2021/04/16 01:21:55;;;;;;;23.80;22.20;;;;;;;;;;5094566;28;20192;-74
2021/04/16 01:24:24;;;;;;;24.63;23.10;;;;;;;;;;5094722;28;20205;-73
2021/04/16 01:26:51;;;;;;;24.10;22.60;;;;;;;;;;5094755;28;20188;-73
2021/04/16 01:29:18;;;;;;;23.95;22.42;;;;;;;;;;5094601;28;20220;-73
2021/04/16 01:31:48;;;;;;;24.52;22.92;;;;;;;;;;5094539;28;20258;-73
2021/04/16 01:34:16;;;;;;;24.48;22.75;;;;;;;;;;5093383;28;20539;-74
2021/04/16 01:36:43;;;;;;;23.40;22.05;;;;;;;;;;5094314;28;20188;-74
2021/04/16 01:39:10;;;;;;;24.23;22.83;;;;;;;;;;5094282;28;20197;-73
2021/04/16 01:41:38;;;;;;;24.10;22.63;;;;;;;;;;5094470;28;20201;-73
2021/04/16 01:44:07;;;;;;;24.42;22.90;;;;;;;;;;5094370;28;20193;-73
2021/04/16 01:46:47;;;;;;;23.55;22.08;;;;;;;;;;5094538;28;20193;-73
2021/04/16 01:49:14;;;;;;;24.65;23.08;;;;;;;;;;5094045;28;20216;-73
2021/04/16 01:51:41;;;;;;;24.55;23.13;;;;;;;;;;5093961;28;20660;-74
2021/04/16 01:54:09;;;;;;;25.55;23.73;;;;;;;;;;5094711;28;20208;-74
2021/04/16 01:56:36;;;;;;;24.38;22.95;;;;;;;;;;5093745;28;20320;-73
2021/04/16 01:59:05;;;;;;;23.75;22.35;;;;;;;;;;5093881;28;20193;-74
2021/04/16 02:01:31;;;;;;;24.17;22.67;;;;;;;;;;5093907;28;20219;-73
2021/04/16 02:03:58;;;;;;;24.80;23.20;;;;;;;;;;5094069;28;20243;-74
2021/04/16 02:06:25;;;;;;;24.17;22.58;;;;;;;;;;5093743;28;20193;-74
2021/04/16 02:08:54;;;;;;;24.80;23.27;;;;;;;;;;5092783;28;20223;-73
2021/04/16 02:11:21;;;;;;;24.35;22.88;;;;;;;;;;5093843;28;20224;-74
2021/04/16 02:13:48;;;;;;;23.70;22.30;;;;;;;;;;5091451;28;20205;-74
2021/04/16 02:16:16;;;;;;;24.33;22.83;;;;;;;;;;5093729;28;20642;-74
2021/04/16 02:18:43;;;;;;;23.85;22.35;;;;;;;;;;5093688;28;20191;-73
2021/04/16 02:21:10;;;;;;;24.70;23.20;;;;;;;;;;5093833;28;20212;-73
2021/04/16 02:23:37;;;;;;;23.42;22.13;;;;;;;;;;5093914;28;20227;-74
2021/04/16 02:26:04;;;;;;;24.10;22.70;;;;;;;;;;5092277;28;20688;-73
2021/04/16 02:28:31;;;;;;;24.27;22.88;;;;;;;;;;5093640;28;20274;-73
2021/04/16 02:30:58;;;;;;;25.00;23.27;;;;;;;;;;5093482;28;20197;-74
2021/04/16 02:33:25;;;;;;;24.10;22.70;;;;;;;;;;5093702;28;20195;-74
2021/04/16 02:35:52;;;;;;;23.80;22.40;;;;;;;;;;5093445;28;20270;-74
2021/04/16 02:38:19;;;;;;;24.23;22.83;;;;;;;;;;5093457;28;20635;-73
2021/04/16 02:40:46;;;;;;;24.98;23.40;;;;;;;;;;5093684;28;20197;-73
2021/04/16 02:43:13;;;;;;;24.30;22.80;;;;;;;;;;5093463;28;20195;-74
2021/04/16 02:45:40;;;;;;;25.10;23.45;;;;;;;;;;5093360;28;20200;-73
2021/04/16 02:48:07;;;;;;;24.60;23.00;;;;;;;;;;5093680;28;20237;-73
2021/04/16 02:50:35;;;;;;;24.08;22.50;;;;;;;;;;5093563;28;20200;-73
2021/04/16 02:53:02;;;;;;;24.33;22.73;;;;;;;;;;5093344;28;20627;-74
2021/04/16 02:55:29;;;;;;;24.50;22.70;;;;;;;;;;5093328;28;20233;-73
2021/04/16 02:57:56;;;;;;;24.48;22.88;;;;;;;;;;5093321;28;20199;-73
2021/04/16 03:00:24;;;;;;;25.73;24.00;;;;;;;;;;5092385;28;20212;-73
2021/04/16 03:02:50;;;;;;;24.25;22.65;;;;;;;;;;5092203;28;20186;-74
2021/04/16 03:05:18;;;;;;;23.48;21.88;;;;;;;;;;5093609;28;20204;-73
2021/04/16 03:07:46;;;;;;;22.83;21.48;;;;;;;;;;5093079;28;20654;-73
2021/04/16 03:10:14;;;;;;;24.35;22.65;;;;;;;;;;5092258;28;20209;-73
2021/04/16 03:12:41;;;;;;;25.23;23.52;;;;;;;;;;5093293;28;20243;-73
2021/04/16 03:15:09;;;;;;;23.25;21.73;;;;;;;;;;5093116;28;20643;-73
2021/04/16 03:17:36;;;;;;;23.90;22.00;;;;;;;;;;5093345;28;20191;-74
2021/04/16 03:20:04;;;;;;;23.38;21.85;;;;;;;;;;5093365;28;20192;-73
2021/04/16 03:22:31;;;;;;;24.08;22.58;;;;;;;;;;5093342;28;20193;-73
2021/04/16 03:24:58;;;;;;;23.75;22.25;;;;;;;;;;5094392;28;20583;-74
2021/04/16 03:27:25;;;;;;;23.88;22.38;;;;;;;;;;5097119;28;20198;-73
2021/04/16 03:29:52;;;;;;;24.30;22.80;;;;;;;;;;5097803;28;20220;-73
2021/04/16 03:32:19;;;;;;;22.98;21.67;;;;;;;;;;5096947;28;20189;-73
2021/04/16 03:34:46;;;;;;;24.80;23.00;;;;;;;;;;5097002;28;20189;-73
2021/04/16 03:37:13;;;;;;;24.77;23.27;;;;;;;;;;5096528;28;20245;-73
2021/04/16 03:39:40;;;;;;;23.40;22.00;;;;;;;;;;5096596;28;20191;-73
2021/04/16 03:42:08;;;;;;;23.33;21.92;;;;;;;;;;5095307;28;20608;-73
2021/04/16 03:44:35;;;;;;;23.80;22.40;;;;;;;;;;5096488;28;20707;-73
2021/04/16 03:47:02;;;;;;;22.48;21.17;;;;;;;;;;5096523;28;20189;-73
2021/04/16 03:49:29;;;;;;;22.80;21.50;;;;;;;;;;5096212;28;20623;-73
2021/04/16 03:51:57;;;;;;;24.15;22.63;;;;;;;;;;5096615;28;20558;-73
2021/04/16 03:54:24;;;;;;;24.60;22.90;;;;;;;;;;5096397;28;20210;-73
2021/04/16 03:56:52;;;;;;;23.63;22.23;;;;;;;;;;5095934;28;20229;-74
2021/04/16 03:59:20;;;;;;;24.67;23.08;;;;;;;;;;5096466;28;20204;-73
2021/04/16 04:01:47;;;;;;;24.40;22.80;;;;;;;;;;5096439;28;20255;-73
2021/04/16 04:04:14;;;;;;;24.17;22.63;;;;;;;;;;5096499;28;20185;-73
2021/04/16 04:06:41;;;;;;;23.30;21.80;;;;;;;;;;5096022;28;20247;-73
2021/04/16 04:09:08;;;;;;;23.92;22.42;;;;;;;;;;5096283;28;20231;-73
2021/04/16 04:11:35;;;;;;;23.30;21.90;;;;;;;;;;5095892;28;20220;-73
2021/04/16 04:14:03;;;;;;;23.77;22.27;;;;;;;;;;5096049;28;20184;-73
2021/04/16 04:16:31;;;;;;;24.50;22.90;;;;;;;;;;5096160;28;20679;-73
2021/04/16 04:18:57;;;;;;;23.70;22.30;;;;;;;;;;5096487;28;20203;-73
2021/04/16 04:21:24;;;;;;;24.13;22.63;;;;;;;;;;5095739;28;20189;-73
2021/04/16 04:23:51;;;;;;;24.25;22.65;;;;;;;;;;5094562;28;20193;-73
2021/04/16 04:26:18;;;;;;;24.60;22.67;;;;;;;;;;5095534;28;20225;-73
2021/04/16 04:28:45;;;;;;;26.45;24.42;;;;;;;;;;5095821;28;20213;-73
2021/04/16 04:31:12;;;;;;;26.00;24.15;;;;;;;;;;5094587;28;20201;-73
2021/04/16 04:33:40;;;;;;;25.08;23.42;;;;;;;;;;5095814;28;20184;-74
2021/04/16 04:36:07;;;;;;;26.67;24.67;;;;;;;;;;5094551;27;20221;-74
2021/04/16 04:38:34;;;;;;;24.23;22.70;;;;;;;;;;5095390;28;20194;-74
2021/04/16 04:41:01;;;;;;;24.38;22.92;;;;;;;;;;5095664;28;20212;-73
2021/04/16 04:43:28;;;;;;;25.88;24.27;;;;;;;;;;5095510;28;20190;-73
2021/04/16 04:45:55;;;;;;;25.67;24.05;;;;;;;;;;5095304;28;20189;-73
2021/04/16 04:48:22;;;;;;;26.63;25.05;;;;;;;;;;5095377;28;20326;-73
2021/04/16 04:50:50;;;;;;;24.60;22.95;;;;;;;;;;5094134;28;20529;-73
2021/04/16 04:53:18;;;;;;;23.55;22.15;;;;;;;;;;5095068;28;20201;-73
2021/04/16 04:55:44;;;;;;;24.55;22.85;;;;;;;;;;5094847;28;20229;-72
2021/04/16 04:58:11;;;;;;;24.42;22.83;;;;;;;;;;5094985;28;20201;-72
2021/04/16 05:00:38;;;;;;;24.92;23.23;;;;;;;;;;5095162;28;20189;-72
2021/04/16 05:03:05;;;;;;;23.73;22.15;;;;;;;;;;5094780;28;20237;-74
2021/04/16 05:05:32;;;;;;;23.90;22.40;;;;;;;;;;5095176;28;20196;-74
2021/04/16 05:08:00;;;;;;;25.48;23.58;;;;;;;;;;5095117;28;20188;-72
2021/04/16 05:10:27;;;;;;;24.08;22.48;;;;;;;;;;5095057;28;20189;-72
2021/04/16 05:12:54;;;;;;;23.80;22.10;;;;;;;;;;5094879;28;20215;-71
2021/04/16 05:15:21;;;;;;;25.08;23.13;;;;;;;;;;5094765;28;20237;-72
2021/04/16 05:17:48;;;;;;;23.80;22.15;;;;;;;;;;5094910;28;20200;-71
2021/04/16 05:20:16;;;;;;;24.95;23.23;;;;;;;;;;5094989;28;20213;-71
2021/04/16 05:22:43;;;;;;;24.48;22.98;;;;;;;;;;5094825;28;20193;-72
2021/04/16 05:25:11;;;;;;;24.90;23.08;;;;;;;;;;5094742;28;20200;-72
2021/04/16 05:27:38;;;;;;;25.42;23.63;;;;;;;;;;5094385;28;20196;-72
2021/04/16 05:30:06;;;;;;;25.70;23.85;;;;;;;;;;5094396;28;20247;-72
2021/04/16 05:32:33;;;;;;;26.30;24.70;;;;;;;;;;5094602;28;20194;-72
2021/04/16 05:35:00;;;;;;;27.52;25.63;;;;;;;;;;5094641;28;20238;-72
2021/04/16 05:37:27;;;;;;;25.83;24.05;;;;;;;;;;5094671;28;20594;-72
2021/04/16 05:39:53;;;;;;;26.05;24.17;;;;;;;;;;5094152;28;20196;-72
2021/04/16 05:42:22;;;;;;;25.80;24.20;;;;;;;;;;5094197;28;20200;-72
2021/04/16 05:44:49;;;;;;;26.65;24.88;;;;;;;;;;5094498;28;20212;-72
2021/04/16 05:47:16;;;;;;;25.50;23.90;;;;;;;;;;5093959;28;20204;-72
2021/04/16 05:49:43;;;;;;;27.10;25.20;;;;;;;;;;5094307;28;20290;-73
2021/04/16 05:52:10;;;;;;;25.52;23.77;;;;;;;;;;5094115;28;20185;-72
2021/04/16 05:54:37;;;;;;;25.90;24.20;;;;;;;;;;5093812;28;20192;-71
2021/04/16 05:57:04;;;;;;;25.98;24.35;;;;;;;;;;5094110;28;20208;-72
2021/04/16 05:59:32;;;;;;;25.75;24.05;;;;;;;;;;5094154;28;20188;-73
2021/04/16 06:01:59;;;;;;;24.60;23.10;;;;;;;;;;5092321;28;20196;-72
2021/04/16 06:04:27;;;;;;;25.92;24.10;;;;;;;;;;5093803;28;20250;-72
2021/04/16 06:06:54;;;;;;;24.73;23.23;;;;;;;;;;5094342;28;20200;-72
2021/04/16 06:09:21;;;;;;;25.10;23.50;;;;;;;;;;5093845;28;20231;-71
2021/04/16 06:11:48;;;;;;;24.20;22.58;;;;;;;;;;5093918;28;20255;-72
2021/04/16 06:14:15;;;;;;;25.17;23.45;;;;;;;;;;5093880;28;20223;-71
2021/04/16 06:16:44;;;;;;;25.73;24.10;;;;;;;;;;5093976;28;20192;-71
2021/04/16 06:19:10;;;;;;;24.65;23.15;;;;;;;;;;5093747;28;20298;-71
2021/04/16 06:21:37;;;;;;;24.55;22.95;;;;;;;;;;5093535;28;20551;-71
2021/04/16 06:24:04;;;;;;;24.88;23.38;;;;;;;;;;5093681;28;20196;-71
2021/04/16 06:26:31;;;;;;;25.15;23.55;;;;;;;;;;5092356;28;20205;-71
2021/04/16 06:29:03;;;;;;;25.63;23.92;;;;;;;;;;5093685;28;20229;-72
2021/04/16 06:31:30;;;;;;;25.60;23.92;;;;;;;;;;5093553;28;20188;-72
2021/04/16 06:33:57;;;;;;;25.45;23.85;;;;;;;;;;5093768;28;20192;-72
2021/04/16 06:36:24;;;;;;;24.88;22.98;;;;;;;;;;5093791;28;20545;-72
2021/04/16 06:38:51;;;;;;;25.23;23.73;;;;;;;;;;5093812;28;20196;-72
2021/04/16 06:41:20;;;;;;;24.75;23.13;;;;;;;;;;5093804;28;20201;-72
2021/04/16 06:43:48;;;;;;;25.75;24.15;;;;;;;;;;5092467;28;20558;-72
2021/04/16 06:46:17;;;;;;;25.63;23.88;;;;;;;;;;5093530;28;20190;-71
2021/04/16 06:48:44;;;;;;;25.52;23.77;;;;;;;;;;5093689;28;20269;-72
2021/04/16 06:51:13;;;;;;;25.00;23.15;;;;;;;;;;5093269;28;20184;-72
2021/04/16 06:53:46;;;;;;;26.02;24.52;;;;;;;;;;5093647;28;20273;-72
2021/04/16 06:56:13;;;;;;;25.83;24.13;;;;;;;;;;5092923;28;20237;-72
2021/04/16 06:58:46;;;;;;;23.85;22.45;;;;;;;;;;5093446;28;20192;-71
2021/04/16 07:01:15;;;;;;;26.00;24.20;;;;;;;;;;5096839;28;20193;-72
2021/04/16 07:03:44;;;;;;;25.52;23.80;;;;;;;;;;5097547;28;20545;-72
2021/04/16 07:06:17;;;;;;;25.13;23.52;;;;;;;;;;5097553;28;20238;-72
2021/04/16 07:08:46;;;;;;;24.20;22.70;;;;;;;;;;5097477;28;20224;-72
2021/04/16 07:11:20;;;;;;;25.98;23.98;;;;;;;;;;5097172;28;20219;-70
2021/04/16 07:13:47;;;;;;;24.35;22.85;;;;;;;;;;5095829;28;20190;-71
2021/04/16 07:16:14;;;;;;;25.20;23.60;;;;;;;;;;5096223;28;20183;-71
2021/04/16 07:18:42;;;;;;;23.60;22.20;;;;;;;;;;5097023;28;20187;-72
2021/04/16 07:21:10;;;;;;;25.27;23.48;;;;;;;;;;5097115;28;20522;-72
2021/04/16 07:23:48;;;;;;;24.15;22.52;;;;;;;;;;5097241;28;20197;-71
2021/04/16 07:26:20;;;;;;;24.27;22.77;;;;;;;;;;5096962;28;20185;-72
2021/04/16 07:28:48;;;;;;;24.40;22.80;;;;;;;;;;5095888;28;20228;-71
2021/04/16 07:31:24;;;;;;;24.08;22.35;;;;;;;;;;5096977;28;20201;-71
2021/04/16 07:33:51;;;;;;;25.08;23.38;;;;;;;;;;5096329;28;20217;-71
2021/04/16 07:36:25;;;;;;;24.65;22.90;;;;;;;;;;5096672;28;20198;-71
2021/04/16 07:39:05;;;;;;;23.08;21.70;;;;;;;;;;5096558;28;20194;-76
2021/04/16 07:41:34;;;;;;;23.75;22.33;;;;;;;;;;5095199;28;20209;-71
2021/04/16 07:44:02;;;;;;;24.50;22.80;;;;;;;;;;5096832;28;20197;-72
2021/04/16 07:46:33;;;;;;;25.08;22.98;;;;;;;;;;5096593;28;20190;-71
2021/04/16 07:49:18;;;;;;;22.58;21.17;;;;;;;;;;5096255;28;20215;-71
2021/04/16 07:51:47;;;;;;;24.52;22.92;;;;;;;;;;5096290;28;20668;-71
2021/04/16 07:54:16;;;;;;;24.15;22.65;;;;;;;;;;5096876;28;20202;-72
2021/04/16 07:56:43;;;;;;;24.50;22.90;;;;;;;;;;5094798;28;20635;-75
2021/04/16 07:59:14;;;;;;;24.80;22.98;;;;;;;;;;5096653;28;20686;-72
2021/04/16 08:01:41;;;;;;;24.30;22.80;;;;;;;;;;5096337;28;20244;-73
2021/04/16 08:04:10;;;;;;;25.13;23.55;;;;;;;;;;5096255;28;20191;-72
2021/04/16 08:06:40;;;;;;;24.75;23.30;;;;;;;;;;5096004;28;20187;-72
2021/04/16 08:09:09;;;;;;;25.30;23.70;;;;;;;;;;5095896;28;20683;-72
2021/04/16 08:11:37;;;;;;;24.52;23.02;;;;;;;;;;5096779;28;20846;-72
2021/04/16 08:14:06;;;;;;;25.00;23.50;;;;;;;;;;5095682;28;20194;-73
2021/04/16 08:16:34;;;;;;;24.17;22.67;;;;;;;;;;5094871;28;20410;-73
2021/04/16 08:19:20;;;;;;;25.10;23.50;;;;;;;;;;5095893;28;20195;-72
2021/04/16 08:21:50;;;;;;;24.17;22.67;;;;;;;;;;5095772;28;20222;-74
2021/04/16 08:24:21;;;;;;;25.07;23.57;;;;;;;;;;5096099;28;20193;-72
2021/04/16 08:26:59;;;;;;;25.53;23.83;;;;;;;;;;5095594;28;20894;-72
2021/04/16 08:29:27;;;;;;;26.50;24.53;;;;;;;;;;5095685;28;20518;-72
2021/04/16 08:31:58;;;;;;;27.10;25.20;;;;;;;;;;5095903;28;20440;-72
2021/04/16 08:34:38;;;;;;;24.97;23.33;;;;;;;;;;5095707;28;20858;-72
2021/04/16 08:37:05;;;;;;;23.50;22.13;;;;;;;;;;5095973;28;20493;-72
2021/04/16 08:39:33;;;;;;;25.60;23.80;;;;;;;;;;5095841;28;20416;-72
2021/04/16 08:42:05;;;;;;;25.10;23.50;;;;;;;;;;5095762;28;20410;-74
2021/04/16 08:44:33;;;;;;;25.03;23.30;;;;;;;;;;5095288;28;20762;-73
2021/04/16 08:47:02;;;;;;;24.80;23.10;;;;;;;;;;5096123;28;20427;-70
2021/04/16 08:49:29;;;;;;;25.47;23.67;;;;;;;;;;5095066;28;20483;-70
2021/04/16 08:51:59;;;;;;;26.10;24.37;;;;;;;;;;5095419;28;20410;-71
2021/04/16 08:54:27;;;;;;;25.13;23.13;;;;;;;;;;5095108;28;20454;-71
2021/04/16 08:56:57;;;;;;;25.80;24.00;;;;;;;;;;5094882;28;20454;-71
2021/04/16 08:59:26;;;;;;;25.43;23.87;;;;;;;;;;5095391;28;20436;-71
2021/04/16 09:01:56;;;;;;;25.47;23.60;;;;;;;;;;5095345;28;20412;-70
2021/04/16 09:04:26;;;;;;;24.27;22.77;;;;;;;;;;5095005;28;20441;-71
2021/04/16 09:06:55;;;;;;;24.30;22.80;;;;;;;;;;5095251;28;20447;-71
2021/04/16 09:09:40;;;;;;;25.27;23.43;;;;;;;;;;5095148;28;20499;-71
2021/04/16 09:12:07;;;;;;;25.50;23.83;;;;;;;;;;5094828;28;20457;-71
2021/04/16 09:14:55;;;;;;;24.10;22.40;;;;;;;;;;5094868;28;20403;-71
2021/04/16 09:17:42;;;;;;;25.00;23.00;;;;;;;;;;5095063;28;20440;-71
2021/04/16 09:20:10;;;;;;;25.53;23.60;;;;;;;;;;5094638;28;20456;-71
2021/04/16 09:22:43;;;;;;;24.07;22.57;;;;;;;;;;5094599;28;20436;-71
2021/04/16 09:25:29;;;;;;;24.40;22.80;;;;;;;;;;5094582;28;20476;-71
2021/04/16 09:27:56;;;;;;;24.20;22.60;;;;;;;;;;5094738;28;20520;-71
2021/04/16 09:30:32;;;;;;;23.73;22.13;;;;;;;;;;5094721;28;20524;-71
2021/04/16 09:33:14;;;;;;;24.10;22.60;;;;;;;;;;5094344;28;20926;-71
2021/04/16 09:35:49;;;;;;;24.70;23.20;;;;;;;;;;5094418;28;20511;-72
2021/04/16 09:38:26;;;;;;;23.80;22.30;;;;;;;;;;5094597;28;20422;-72
2021/04/16 09:41:07;;;;;;;23.17;21.53;;;;;;;;;;5094360;28;20420;-71
2021/04/16 09:43:35;;;;;;;24.33;22.80;;;;;;;;;;5094202;28;20433;-71
2021/04/16 09:46:02;;;;;;;23.40;22.00;;;;;;;;;;5094222;28;20471;-70
2021/04/16 09:48:44;;;;;;;24.07;22.47;;;;;;;;;;5094407;28;20435;-71
2021/04/16 09:51:35;;;;;;;24.27;22.77;;;;;;;;;;5094169;28;20462;-70
2021/04/16 09:54:17;;;;;;;23.33;21.80;;;;;;;;;;5079131;28;20481;-70
2021/04/16 09:56:59;;;;;;;23.47;22.07;;;;;;;;;;5079773;28;20552;-71
2021/04/16 09:59:32;;;;;;;24.30;22.60;;;;;;;;;;5093696;28;20976;-71
2021/04/16 10:02:20;;;;;;;23.10;21.70;;;;;;;;;;5093452;28;20447;-71
2021/04/16 10:04:51;;;;;;;23.83;22.27;;;;;;;;;;5089283;28;20460;-71
2021/04/16 10:07:20;;;;;;;24.57;22.20;;;;;;;;;;5094052;28;20436;-69
2021/04/16 10:09:46;;;;;;;24.50;22.90;;;;;;;;;;5093944;28;20484;-71
2021/04/16 10:12:17;;;;;;;24.17;22.57;;;;;;;;;;5093563;28;20522;-71
2021/04/16 10:14:45;;;;;;;25.10;23.47;;;;;;;;;;5095120;28;20837;-71
2021/04/16 10:17:18;;;;;;;24.43;22.83;;;;;;;;;;5093911;28;20432;-70
2021/04/16 10:19:46;;;;;;;23.83;22.37;;;;;;;;;;5093665;28;20415;-70
2021/04/16 10:22:13;;;;;;;24.53;22.77;;;;;;;;;;5093934;28;20460;-70
2021/04/16 12:39:31;;;;;;;23.83;22.10;;;;;;;;;;5095952;28;20920;-72
2021/04/16 12:41:59;;;;;;;23.97;22.47;;;;;;;;;;5095444;28;20441;-71
2021/04/16 12:44:30;;;;;;;24.47;22.77;;;;;;;;;;5095678;28;20437;-71
2021/04/16 12:46:58;;;;;;;24.17;22.57;;;;;;;;;;5095269;28;20777;-70
2021/04/16 12:49:26;;;;;;;23.00;21.60;;;;;;;;;;5095495;28;20541;-71
2021/04/16 12:51:53;;;;;;;24.10;22.60;;;;;;;;;;5093952;28;20845;-71
2021/04/16 12:54:20;;;;;;;24.77;23.27;;;;;;;;;;5094309;28;20498;-71
2021/04/16 12:56:48;;;;;;;24.90;23.30;;;;;;;;;;5094523;28;20471;-71
2021/04/16 12:59:17;;;;;;;23.43;22.03;;;;;;;;;;5094790;28;20416;-70
2021/04/16 13:01:46;;;;;;;23.73;22.23;;;;;;;;;;5095346;28;20455;-71
2021/04/16 13:04:13;;;;;;;23.50;22.00;;;;;;;;;;5094985;28;20428;-71
2021/04/16 13:06:41;;;;;;;24.60;23.10;;;;;;;;;;5095325;28;20437;-71
2021/04/16 13:09:08;;;;;;;24.63;23.13;;;;;;;;;;5095139;28;20476;-74
2021/04/16 13:11:35;;;;;;;24.60;23.00;;;;;;;;;;5093557;28;20451;-73
2021/04/16 13:14:02;;;;;;;25.00;23.40;;;;;;;;;;5093606;28;20446;-75
2021/04/16 13:16:29;;;;;;;24.83;23.30;;;;;;;;;;5094945;28;20962;-71
2021/04/16 13:18:58;;;;;;;25.20;23.50;;;;;;;;;;5095524;28;20448;-71
2021/04/16 13:21:28;;;;;;;24.93;23.40;;;;;;;;;;5094896;28;20440;-71
2021/04/16 13:23:55;;;;;;;24.20;22.80;;;;;;;;;;5095271;28;20427;-71
2021/04/16 13:26:22;;;;;;;26.90;25.00;;;;;;;;;;5094476;28;20421;-71
2021/04/16 13:28:49;;;;;;;24.23;22.53;;;;;;;;;;5094677;27;20811;-70
2021/04/16 13:31:16;;;;;;;24.43;22.83;;;;;;;;;;5094477;28;20744;-71
2021/04/16 13:33:44;;;;;;;23.63;22.13;;;;;;;;;;5094768;28;20444;-71
2021/04/16 13:36:14;;;;;;;25.73;24.00;;;;;;;;;;5093839;28;20777;-70
2021/04/16 13:38:41;;;;;;;23.77;22.27;;;;;;;;;;5094500;28;20762;-70
2021/04/16 13:41:08;;;;;;;24.60;23.10;;;;;;;;;;5094612;28;20429;-70
2021/04/16 13:43:35;;;;;;;24.63;23.13;;;;;;;;;;5094226;28;21030;-71
2021/04/16 13:46:03;;;;;;;24.50;23.00;;;;;;;;;;5094561;28;20415;-71
2021/04/16 13:48:30;;;;;;;24.67;23.13;;;;;;;;;;5094396;28;20429;-70
2021/04/16 13:50:57;;;;;;;24.73;22.90;;;;;;;;;;5093939;28;20493;-70
2021/04/16 13:53:25;;;;;;;24.97;23.40;;;;;;;;;;5094293;28;20414;-70
2021/04/16 13:55:53;;;;;;;25.00;23.30;;;;;;;;;;5093754;28;20476;-70
2021/04/16 13:58:20;;;;;;;23.87;22.43;;;;;;;;;;5093867;28;20473;-71
2021/04/16 14:00:47;;;;;;;25.03;23.27;;;;;;;;;;5094131;28;20435;-70
2021/04/16 14:03:15;;;;;;;25.57;24.07;;;;;;;;;;5094265;28;20419;-73
2021/04/16 14:05:46;;;;;;;25.57;23.97;;;;;;;;;;5094307;28;20437;-71
2021/04/16 14:08:20;;;;;;;23.40;22.00;;;;;;;;;;5093962;28;20432;-72
2021/04/16 14:10:48;;;;;;;24.53;22.70;;;;;;;;;;5093685;28;20499;-74
2021/04/16 14:13:15;;;;;;;25.63;24.00;;;;;;;;;;5093877;28;20440;-75
2021/04/16 14:15:42;;;;;;;24.50;23.00;;;;;;;;;;5094316;28;20433;-76
2021/04/16 14:18:10;;;;;;;25.40;23.80;;;;;;;;;;5093071;28;20441;-76
2021/04/16 14:20:38;;;;;;;24.43;22.83;;;;;;;;;;5076025;28;20825;-76
2021/04/16 14:23:06;;;;;;;25.50;23.90;;;;;;;;;;5093733;28;20444;-75
2021/04/16 14:25:34;;;;;;;24.30;22.73;;;;;;;;;;5094098;28;20427;-71
2021/04/16 14:28:02;;;;;;;25.60;23.83;;;;;;;;;;5093835;28;20436;-74
2021/04/16 14:30:30;;;;;;;24.90;23.10;;;;;;;;;;5093738;28;20463;-74
2021/04/16 14:32:58;;;;;;;24.37;22.77;;;;;;;;;;5094168;28;20446;-74
2021/04/16 14:35:26;;;;;;;24.70;23.20;;;;;;;;;;5094230;28;20411;-75
2021/04/16 14:37:58;;;;;;;24.77;23.17;;;;;;;;;;5093304;28;20411;-75
2021/04/16 14:40:26;;;;;;;24.00;22.60;;;;;;;;;;5093380;28;20439;-70
2021/04/16 14:42:54;;;;;;;23.37;21.97;;;;;;;;;;5093773;28;20934;-75
2021/04/16 14:45:22;;;;;;;23.73;22.23;;;;;;;;;;5093683;28;20442;-75
2021/04/16 14:47:49;;;;;;;23.50;22.00;;;;;;;;;;5093476;28;20416;-71
2021/04/16 14:50:17;;;;;;;25.80;24.17;;;;;;;;;;5093589;28;20451;-71
2021/04/16 14:52:44;;;;;;;24.90;23.30;;;;;;;;;;5093578;28;20407;-71
2021/04/16 14:55:15;;;;;;;24.37;22.97;;;;;;;;;;5092138;28;20443;-71
2021/04/16 14:57:43;;;;;;;25.50;23.90;;;;;;;;;;5093319;28;20416;-71
2021/04/16 15:00:11;;;;;;;25.47;23.77;;;;;;;;;;5093606;28;20419;-71
2021/04/16 15:02:39;;;;;;;24.67;23.10;;;;;;;;;;5093432;28;20490;-70
2021/04/16 15:05:07;;;;;;;23.60;22.10;;;;;;;;;;5093610;28;20468;-71
2021/04/16 15:07:40;;;;;;;23.57;22.03;;;;;;;;;;5093226;28;20441;-71
2021/04/16 15:10:08;;;;;;;23.20;21.80;;;;;;;;;;5093168;28;20492;-71
2021/04/16 15:12:36;;;;;;;24.07;22.60;;;;;;;;;;5093216;28;20408;-70
2021/04/16 15:15:04;;;;;;;23.70;22.30;;;;;;;;;;5093187;28;20759;-76
2021/04/16 15:17:31;;;;;;;23.93;22.50;;;;;;;;;;5093575;28;20481;-77
2021/04/16 15:19:59;;;;;;;25.53;24.00;;;;;;;;;;5093482;28;20436;-75
2021/04/16 15:22:27;;;;;;;26.20;24.60;;;;;;;;;;5097260;28;20445;-75
2021/04/16 15:24:55;;;;;;;25.30;23.60;;;;;;;;;;5097298;28;20428;-75
2021/04/16 15:27:23;;;;;;;24.63;23.13;;;;;;;;;;5097191;28;20768;-77
2021/04/16 15:29:52;;;;;;;24.27;22.77;;;;;;;;;;5096999;27;20987;-77
2021/04/16 15:32:20;;;;;;;26.40;24.60;;;;;;;;;;5097125;28;20428;-76
2021/04/16 15:48:02;;;;;;;26.40;24.80;;;;;;;;;;5096692;28;20840;-71
2021/04/16 15:50:31;;;;;;;27.40;25.60;;;;;;;;;;5096390;28;20470;-71
2021/04/16 15:52:58;;;;;;;27.60;25.90;;;;;;;;;;5096785;28;20428;-71
2021/04/16 15:55:25;;;;;;;25.87;24.37;;;;;;;;;;5096007;28;20485;-71
2021/04/16 15:57:54;;;;;;;26.27;24.43;;;;;;;;;;5096252;28;20442;-72
2021/04/16 16:00:22;;;;;;;24.60;23.00;;;;;;;;;;5096259;28;20894;-72
2021/04/16 16:02:49;;;;;;;25.23;23.50;;;;;;;;;;5094691;28;20499;-71
2021/04/16 16:05:16;;;;;;;25.93;24.23;;;;;;;;;;5095939;28;20409;-71
2021/04/16 16:07:43;;;;;;;28.20;26.40;;;;;;;;;;5096403;28;20412;-79
2021/04/16 16:10:12;;;;;;;26.20;24.60;;;;;;;;;;5095862;28;20494;-77
2021/04/16 16:12:40;;;;;;;25.70;24.10;;;;;;;;;;5095878;28;20902;-76
2021/04/16 16:15:14;;;;;;;25.03;23.40;;;;;;;;;;5096256;28;20466;-71
2021/04/16 16:17:43;;;;;;;26.00;24.30;;;;;;;;;;5095936;28;20417;-71
2021/04/16 16:20:11;;;;;;;24.20;22.60;;;;;;;;;;5096259;28;20461;-72
2021/04/16 16:22:38;;;;;;;25.97;24.27;;;;;;;;;;5096027;28;20478;-71
2021/04/16 16:25:06;;;;;;;25.33;23.73;;;;;;;;;;5095985;28;20453;-71
2021/04/16 16:27:35;;;;;;;26.70;25.10;;;;;;;;;;5095726;28;20408;-71
2021/04/16 16:30:04;;;;;;;25.83;24.33;;;;;;;;;;5094620;28;20854;-71
2021/04/16 16:32:32;;;;;;;26.80;25.10;;;;;;;;;;5094731;28;20772;-71
2021/04/16 16:34:59;;;;;;;26.23;24.63;;;;;;;;;;5095660;28;20444;-71
2021/04/16 16:37:26;;;;;;;26.07;24.57;;;;;;;;;;5094671;28;20435;-71
2021/04/16 16:39:53;;;;;;;26.60;25.00;;;;;;;;;;5095611;28;20413;-71
2021/04/16 16:42:23;;;;;;;26.97;25.37;;;;;;;;;;5095633;28;20967;-71
2021/04/16 16:44:51;;;;;;;25.73;24.03;;;;;;;;;;5095829;28;20820;-71
2021/04/16 16:47:18;;;;;;;26.40;24.80;;;;;;;;;;5095422;28;20429;-71
2021/04/16 16:49:45;;;;;;;27.33;25.40;;;;;;;;;;5095551;28;20448;-71
2021/04/16 16:52:12;;;;;;;31.03;28.67;;;;;;;;;;5095518;28;20450;-71